createdAt,value
2023-03-13T00:02:38.619Z,100.00
2023-03-13T00:05:40.010Z,100.00
2023-03-13T00:08:41.870Z,100.00
2023-03-13T00:11:44.136Z,100.00
2023-03-13T00:14:45.533Z,100.00
2023-03-13T00:17:47.008Z,100.00
2023-03-13T00:20:50.504Z,100.00
2023-03-13T00:23:52.184Z,100.00
2023-03-13T00:26:55.177Z,100.00
2023-03-13T00:29:56.567Z,100.00
2023-03-13T00:32:58.157Z,100.00
2023-03-13T00:36:01.103Z,100.00
2023-03-13T00:39:04.495Z,100.00
2023-03-13T00:42:06.073Z,100.00
2023-03-13T00:45:07.852Z,100.00
2023-03-13T00:48:09.228Z,100.00
2023-03-13T00:51:11.141Z,100.00
2023-03-13T00:54:12.584Z,100.00
2023-03-13T00:57:14.066Z,100.00
2023-03-13T01:00:16.451Z,100.00
2023-03-13T01:03:18.579Z,100.00
2023-03-13T01:06:23.157Z,100.00
2023-03-13T01:09:24.934Z,100.00
2023-03-13T01:12:26.454Z,100.00
2023-03-13T01:15:27.861Z,100.00
2023-03-13T01:18:29.398Z,100.00
2023-03-13T01:21:31.545Z,100.00
2023-03-13T01:24:33.219Z,100.00
2023-03-13T01:27:34.763Z,100.00
2023-03-13T01:30:36.291Z,99.80
2023-03-13T01:33:37.896Z,99.85
2023-03-13T01:36:39.349Z,100.00
2023-03-13T01:39:40.792Z,99.53
2023-03-13T01:42:59.824Z,99.43
2023-03-13T01:46:01.614Z,98.16
2023-03-13T01:49:18.059Z,97.74
2023-03-13T01:52:31.027Z,96.99
2023-03-13T01:55:57.224Z,96.38
2023-03-13T01:58:59.254Z,96.06
2023-03-13T02:02:04.441Z,96.07
2023-03-13T02:05:07.085Z,94.90
2023-03-13T02:08:32.635Z,94.09
2023-03-13T02:11:55.287Z,93.69
2023-03-13T02:14:59.413Z,91.87
2023-03-13T02:18:00.982Z,91.53
2023-03-13T02:21:11.372Z,91.06
2023-03-13T02:24:28.767Z,90.12
2023-03-13T02:27:30.543Z,89.62
2023-03-13T02:30:33.432Z,90.21
2023-03-13T02:33:38.686Z,90.65
2023-03-13T02:36:41.077Z,90.79
2023-03-13T02:39:47.271Z,91.60
2023-03-13T02:42:52.202Z,92.62
2023-03-13T02:46:12.502Z,91.34
2023-03-13T02:49:20.386Z,90.11
2023-03-13T02:52:26.299Z,90.90
2023-03-13T02:55:32.566Z,90.53
2023-03-13T02:58:51.348Z,90.94
2023-03-13T03:01:56.912Z,90.02
2023-03-13T03:04:58.363Z,90.49
2023-03-13T03:07:59.846Z,90.95
2023-03-13T03:11:05.194Z,92.25
2023-03-13T03:14:07.618Z,92.01
2023-03-13T03:17:13.206Z,92.06
2023-03-13T03:20:15.010Z,92.14
2023-03-13T03:23:18.004Z,92.92
2023-03-13T03:26:19.642Z,93.64
2023-03-13T03:29:21.352Z,93.27
2023-03-13T03:32:25.886Z,94.21
2023-03-13T03:35:29.060Z,94.60
2023-03-13T03:38:30.792Z,96.09
2023-03-13T03:41:32.395Z,95.37
2023-03-13T03:44:34.500Z,96.30
2023-03-13T03:47:36.201Z,96.75
2023-03-13T03:50:37.681Z,96.24
2023-03-13T03:53:39.279Z,96.80
2023-03-13T03:56:41.023Z,98.28
2023-03-13T03:59:42.587Z,100.00
2023-03-13T04:02:45.660Z,100.00
2023-03-13T04:05:48.065Z,100.00
2023-03-13T04:08:50.480Z,100.00
2023-03-13T04:11:55.343Z,100.00
2023-03-13T04:14:57.329Z,100.00
2023-03-13T04:17:59.175Z,100.00
2023-03-13T04:21:03.164Z,100.00
2023-03-13T04:24:08.360Z,100.00
2023-03-13T04:27:11.823Z,100.00
2023-03-13T04:30:13.532Z,100.00
2023-03-13T04:33:34.249Z,100.00
2023-03-13T04:37:05.076Z,100.00
2023-03-13T04:40:25.299Z,100.00
2023-03-13T04:43:38.662Z,100.00
2023-03-13T04:47:03.984Z,100.00
2023-03-13T04:50:20.581Z,100.00
2023-03-13T04:53:38.899Z,100.00
2023-03-13T04:57:00.607Z,100.00
2023-03-13T05:00:11.464Z,100.00
2023-03-13T05:03:26.155Z,100.00
2023-03-13T05:06:46.200Z,100.00
2023-03-13T05:09:47.642Z,100.00
2023-03-13T05:13:18.190Z,100.00
2023-03-13T05:16:32.115Z,100.00
2023-03-13T05:19:53.776Z,100.00
2023-03-13T05:23:18.039Z,100.00
2023-03-13T05:26:37.642Z,100.00
2023-03-13T05:29:53.281Z,100.00
2023-03-13T05:33:11.328Z,100.00
2023-03-13T05:36:19.336Z,100.00
2023-03-13T05:39:36.823Z,100.00
2023-03-13T05:43:01.127Z,100.00
2023-03-13T05:46:37.697Z,100.00
2023-03-13T05:50:08.536Z,100.00
2023-03-13T05:53:30.277Z,100.00
2023-03-13T05:56:48.719Z,100.00
2023-03-13T06:00:06.531Z,100.00
2023-03-13T06:03:36.102Z,100.00
2023-03-13T06:06:39.153Z,100.00
2023-03-13T06:09:40.956Z,100.00
2023-03-13T06:12:43.304Z,100.00
2023-03-13T06:15:55.362Z,100.00
2023-03-13T06:19:20.065Z,100.00
2023-03-13T06:22:21.552Z,100.00
2023-03-13T06:25:23.570Z,100.00
2023-03-13T06:28:24.946Z,100.00
2023-03-13T06:31:26.437Z,100.00
2023-03-13T06:34:27.953Z,100.00
2023-03-13T06:37:29.403Z,100.00
2023-03-13T06:40:30.774Z,100.00
2023-03-13T06:43:32.286Z,100.00
2023-03-13T06:46:33.802Z,100.00
2023-03-13T06:49:36.041Z,100.00
2023-03-13T06:52:43.865Z,100.00
2023-03-13T06:55:46.356Z,100.00
2023-03-13T06:58:49.368Z,100.00
2023-03-13T07:01:50.923Z,100.00
2023-03-13T07:04:52.308Z,100.00
2023-03-13T07:07:53.690Z,100.00
2023-03-13T07:10:59.990Z,100.00
2023-03-13T07:14:15.330Z,100.00
2023-03-13T07:17:17.749Z,100.00
2023-03-13T07:20:19.408Z,100.00
2023-03-13T07:23:21.738Z,100.00
2023-03-13T07:26:23.233Z,100.00
2023-03-13T07:29:25.034Z,100.00
2023-03-13T07:32:30.789Z,100.00
2023-03-13T07:35:32.263Z,100.00
2023-03-13T07:38:33.912Z,100.00
2023-03-13T07:41:35.509Z,100.00
2023-03-13T07:44:36.989Z,100.00
2023-03-13T07:47:38.367Z,100.00
2023-03-13T07:50:39.886Z,100.00
2023-03-13T07:53:41.373Z,100.00
2023-03-13T07:56:42.850Z,100.00
2023-03-13T07:59:44.231Z,100.00
2023-03-13T08:02:45.659Z,100.00
2023-03-13T08:05:47.105Z,100.00
2023-03-13T08:08:49.052Z,100.00
2023-03-13T08:11:50.436Z,100.00
2023-03-13T08:14:51.848Z,100.00
2023-03-13T08:17:53.323Z,100.00
2023-03-13T08:20:54.712Z,100.00
2023-03-13T08:24:01.459Z,100.00
2023-03-13T08:27:02.951Z,100.00
2023-03-13T08:30:05.037Z,100.00
2023-03-13T08:33:07.733Z,100.00
2023-03-13T08:36:17.132Z,100.00
2023-03-13T08:39:20.440Z,100.00
2023-03-13T08:42:25.778Z,100.00
2023-03-13T08:45:27.279Z,100.00
2023-03-13T08:48:28.867Z,100.00
2023-03-13T08:51:30.287Z,100.00
2023-03-13T08:54:32.893Z,100.00
2023-03-13T08:57:34.286Z,100.00
2023-03-13T09:00:35.676Z,100.00
2023-03-13T09:03:37.834Z,100.00
2023-03-13T09:06:39.334Z,100.00
2023-03-13T09:09:40.944Z,100.00
2023-03-13T09:12:42.362Z,100.00
2023-03-13T09:15:43.775Z,100.00
2023-03-13T09:18:45.930Z,100.00
2023-03-13T09:21:49.195Z,100.00
2023-03-13T09:24:50.580Z,100.00
2023-03-13T09:27:51.976Z,100.00
2023-03-13T09:30:54.269Z,100.00
2023-03-13T09:33:55.871Z,100.00
2023-03-13T09:36:57.313Z,100.00
2023-03-13T09:39:59.647Z,100.00
2023-03-13T09:43:01.294Z,100.00
2023-03-13T09:46:06.268Z,100.00
2023-03-13T09:49:30.245Z,100.00
2023-03-13T09:52:40.397Z,100.00
2023-03-13T09:55:45.007Z,100.00
2023-03-13T09:59:07.323Z,100.00
2023-03-13T10:02:26.834Z,100.00
2023-03-13T10:05:29.711Z,100.00
2023-03-13T10:08:33.087Z,100.00
2023-03-13T10:11:51.158Z,99.47
2023-03-13T10:15:00.524Z,99.23
2023-03-13T10:18:13.995Z,100.00
2023-03-13T10:21:26.136Z,99.32
2023-03-13T10:24:36.859Z,98.36
2023-03-13T10:28:04.951Z,97.33
2023-03-13T10:31:25.155Z,96.28
2023-03-13T10:34:29.857Z,96.07
2023-03-13T10:37:42.084Z,96.43
2023-03-13T10:40:43.825Z,95.86
2023-03-13T10:43:53.751Z,95.85
2023-03-13T10:47:00.351Z,94.91
2023-03-13T10:50:04.075Z,94.23
2023-03-13T10:53:30.381Z,94.15
2023-03-13T10:56:31.790Z,92.88
2023-03-13T10:59:40.256Z,90.79
2023-03-13T11:02:44.755Z,89.02
2023-03-13T11:06:01.000Z,88.02
2023-03-13T11:09:02.317Z,87.07
2023-03-13T11:12:09.558Z,85.37
2023-03-13T11:15:51.493Z,83.96
2023-03-13T11:19:10.023Z,83.56
2023-03-13T11:22:14.616Z,83.23
2023-03-13T11:25:20.625Z,80.91
2023-03-13T11:28:45.068Z,78.85
2023-03-13T11:31:57.167Z,76.97
2023-03-13T11:35:04.570Z,76.74
2023-03-13T11:38:27.200Z,74.82
2023-03-13T11:42:00.583Z,73.49
2023-03-13T11:45:28.404Z,74.46
2023-03-13T11:49:02.164Z,72.60
2023-03-13T11:52:35.544Z,72.38
2023-03-13T11:56:24.966Z,71.42
2023-03-13T11:59:52.840Z,70.71
2023-03-13T12:03:04.786Z,67.07
2023-03-13T12:06:27.360Z,66.35
2023-03-13T12:09:51.733Z,65.32
2023-03-13T12:13:20.000Z,63.93
2023-03-13T12:16:27.021Z,63.58
2023-03-13T12:19:45.458Z,63.55
2023-03-13T12:22:49.829Z,61.35
2023-03-13T12:26:03.337Z,61.45
2023-03-13T12:29:13.920Z,62.24
2023-03-13T12:32:54.109Z,61.59
2023-03-13T12:36:21.016Z,63.24
2023-03-13T12:40:12.227Z,64.44
2023-03-13T12:43:29.969Z,64.48
2023-03-13T12:46:42.596Z,64.60
2023-03-13T12:50:02.351Z,65.96
2023-03-13T12:53:29.930Z,66.27
2023-03-13T12:56:46.320Z,65.45
2023-03-13T12:59:54.412Z,65.77
2023-03-13T13:03:16.183Z,65.00
2023-03-13T13:06:18.122Z,64.82
2023-03-13T13:09:59.774Z,63.50
2023-03-13T13:13:13.331Z,62.79
2023-03-13T13:16:20.267Z,62.65
2023-03-13T13:19:24.591Z,59.81
2023-03-13T13:22:38.457Z,57.88
2023-03-13T13:25:40.040Z,57.89
2023-03-13T13:28:43.788Z,55.87
2023-03-13T13:31:48.494Z,56.11
2023-03-13T13:34:56.041Z,54.24
2023-03-13T13:38:18.980Z,53.55
2023-03-13T13:41:20.773Z,52.73
2023-03-13T13:44:29.514Z,53.02
2023-03-13T13:47:33.792Z,52.22
2023-03-13T13:50:35.408Z,51.82
2023-03-13T13:53:59.601Z,53.01
2023-03-13T13:57:11.352Z,52.96
2023-03-13T14:00:27.097Z,52.29
2023-03-13T14:03:31.762Z,53.25
2023-03-13T14:06:36.684Z,54.14
2023-03-13T14:09:52.505Z,54.31
2023-03-13T14:12:57.596Z,54.26
2023-03-13T14:16:23.700Z,55.54
2023-03-13T14:19:33.897Z,55.29
2023-03-13T14:22:46.669Z,54.99
2023-03-13T14:25:50.337Z,54.25
2023-03-13T14:28:54.633Z,53.28
2023-03-13T14:31:58.686Z,52.63
2023-03-13T14:35:00.151Z,51.79
2023-03-13T14:38:03.398Z,50.77
2023-03-13T14:41:04.837Z,51.19
2023-03-13T14:44:14.966Z,50.84
2023-03-13T14:47:16.655Z,51.25
2023-03-13T14:50:18.560Z,51.14
2023-03-13T14:53:22.882Z,51.53
2023-03-13T14:56:38.666Z,52.31
2023-03-13T14:59:40.730Z,52.19
2023-03-13T15:02:43.390Z,52.96
2023-03-13T15:05:47.677Z,52.58
2023-03-13T15:09:15.306Z,52.31
2023-03-13T15:12:20.217Z,52.85
2023-03-13T15:15:25.943Z,53.27
2023-03-13T15:18:30.187Z,52.34
2023-03-13T15:21:33.681Z,52.42
2023-03-13T15:24:35.095Z,52.51
2023-03-13T15:27:36.621Z,52.99
2023-03-13T15:30:38.022Z,52.72
2023-03-13T15:33:39.716Z,53.77
2023-03-13T15:36:42.400Z,53.18
2023-03-13T15:39:43.856Z,53.03
2023-03-13T15:42:45.668Z,53.06
2023-03-13T15:45:51.710Z,52.50
2023-03-13T15:48:53.925Z,53.13
2023-03-13T15:51:57.770Z,53.54
2023-03-13T15:54:59.387Z,54.07
2023-03-13T15:58:00.776Z,53.75
2023-03-13T16:01:02.237Z,53.65
2023-03-13T16:04:04.461Z,53.52
2023-03-13T16:07:11.474Z,53.92
2023-03-13T16:10:25.268Z,53.16
2023-03-13T16:13:27.027Z,53.68
2023-03-13T16:16:36.440Z,53.45
2023-03-13T16:19:38.642Z,54.27
2023-03-13T16:22:40.028Z,55.24
2023-03-13T16:25:41.496Z,55.20
2023-03-13T16:28:43.581Z,55.39
2023-03-13T16:31:45.097Z,55.03
2023-03-13T16:34:46.630Z,53.75
2023-03-13T16:37:50.694Z,52.74
2023-03-13T16:40:52.102Z,54.47
2023-03-13T16:43:54.431Z,55.46
2023-03-13T16:47:05.630Z,56.16
2023-03-13T16:50:32.473Z,56.35
2023-03-13T16:53:33.882Z,57.41
2023-03-13T16:56:38.439Z,58.62
2023-03-13T16:59:39.890Z,59.74
2023-03-13T17:02:41.366Z,60.23
2023-03-13T17:05:42.773Z,61.01
2023-03-13T17:08:44.543Z,61.94
2023-03-13T17:11:46.479Z,63.10
2023-03-13T17:14:47.963Z,70.81
2023-03-13T17:17:54.092Z,76.74
2023-03-13T17:20:55.561Z,80.82
2023-03-13T17:23:57.024Z,82.84
2023-03-13T17:26:58.911Z,84.77
2023-03-13T17:30:00.360Z,86.58
2023-03-13T17:33:01.862Z,87.60
2023-03-13T17:36:16.931Z,88.96
2023-03-13T17:39:18.384Z,90.06
2023-03-13T17:42:19.841Z,93.46
2023-03-13T17:45:21.257Z,96.83
2023-03-13T17:48:22.740Z,100.00
2023-03-13T17:51:26.340Z,100.00
2023-03-13T17:54:27.754Z,100.00
2023-03-13T17:57:29.126Z,100.00
2023-03-13T18:00:32.529Z,100.00
2023-03-13T18:03:33.936Z,100.00
2023-03-13T18:06:42.318Z,100.00
2023-03-13T18:09:47.393Z,100.00
2023-03-13T18:12:49.019Z,100.00
2023-03-13T18:15:50.472Z,100.00
2023-03-13T18:18:53.298Z,100.00
2023-03-13T18:21:55.788Z,100.00
2023-03-13T18:24:57.394Z,100.00
2023-03-13T18:27:59.076Z,100.00
2023-03-13T18:31:00.578Z,100.00
2023-03-13T18:34:04.090Z,100.00
2023-03-13T18:37:20.632Z,100.00
2023-03-13T18:40:25.322Z,100.00
2023-03-13T18:43:26.730Z,100.00
2023-03-13T18:46:31.608Z,100.00
2023-03-13T18:49:32.999Z,100.00
2023-03-13T18:52:34.391Z,100.00
2023-03-13T18:55:35.797Z,100.00
2023-03-13T18:58:37.343Z,100.00
2023-03-13T19:01:38.994Z,100.00
2023-03-13T19:04:40.426Z,100.00
2023-03-13T19:07:41.935Z,100.00
2023-03-13T19:10:43.463Z,100.00
2023-03-13T19:13:45.066Z,100.00
2023-03-13T19:16:51.581Z,100.00
2023-03-13T19:19:57.045Z,100.00
2023-03-13T19:23:00.526Z,100.00
2023-03-13T19:26:02.063Z,100.00
2023-03-13T19:29:06.169Z,100.00
2023-03-13T19:32:13.393Z,100.00
2023-03-13T19:35:18.606Z,100.00
2023-03-13T19:38:20.002Z,100.00
2023-03-13T19:41:21.378Z,100.00
2023-03-13T19:44:28.052Z,100.00
2023-03-13T19:47:29.435Z,100.00
2023-03-13T19:50:31.472Z,100.00
2023-03-13T19:53:34.486Z,100.00
2023-03-13T19:56:37.324Z,100.00
2023-03-13T19:59:39.971Z,100.00
2023-03-13T20:02:41.693Z,100.00
2023-03-13T20:05:43.210Z,100.00
2023-03-13T20:08:45.936Z,100.00
2023-03-13T20:11:47.441Z,100.00
2023-03-13T20:14:48.912Z,100.00
2023-03-13T20:17:50.598Z,100.00
2023-03-13T20:20:51.999Z,100.00
2023-03-13T20:23:53.433Z,100.00
2023-03-13T20:26:55.642Z,100.00
2023-03-13T20:29:57.123Z,100.00
2023-03-13T20:33:00.039Z,100.00
2023-03-13T20:36:09.309Z,100.00
2023-03-13T20:39:10.907Z,100.00
2023-03-13T20:42:12.636Z,100.00
2023-03-13T20:45:14.065Z,100.00
2023-03-13T20:48:16.114Z,100.00
2023-03-13T20:51:17.716Z,100.00
2023-03-13T20:54:19.178Z,100.00
2023-03-13T20:57:21.073Z,100.00
2023-03-13T21:00:23.250Z,100.00
2023-03-13T21:03:24.812Z,100.00
2023-03-13T21:06:27.199Z,100.00
2023-03-13T21:09:28.683Z,100.00
2023-03-13T21:12:30.200Z,100.00
2023-03-13T21:15:32.465Z,100.00
2023-03-13T21:18:34.093Z,100.00
2023-03-13T21:21:35.466Z,100.00
2023-03-13T21:24:36.904Z,100.00
2023-03-13T21:27:38.902Z,100.00
2023-03-13T21:30:40.272Z,100.00
2023-03-13T21:33:43.026Z,100.00
2023-03-13T21:36:44.583Z,100.00
2023-03-13T21:39:50.157Z,100.00
2023-03-13T21:42:51.547Z,100.00
2023-03-13T21:45:52.929Z,100.00
2023-03-13T21:48:54.375Z,100.00
2023-03-13T21:51:56.356Z,100.00
2023-03-13T21:54:57.874Z,100.00
2023-03-13T21:57:59.260Z,100.00
2023-03-13T22:01:00.760Z,100.00
2023-03-13T22:04:02.184Z,100.00
2023-03-13T22:07:03.829Z,100.00
2023-03-13T22:10:05.715Z,100.00
2023-03-13T22:13:12.435Z,100.00
2023-03-13T22:16:13.840Z,100.00
2023-03-13T22:19:17.346Z,100.00
2023-03-13T22:22:21.683Z,100.00
2023-03-13T22:25:23.091Z,100.00
2023-03-13T22:28:25.580Z,100.00
2023-03-13T22:31:27.188Z,100.00
2023-03-13T22:34:28.989Z,100.00
2023-03-13T22:37:30.622Z,100.00
2023-03-13T22:40:32.563Z,100.00
2023-03-13T22:43:35.071Z,100.00
2023-03-13T22:46:36.790Z,100.00
2023-03-13T22:49:38.277Z,100.00
2023-03-13T22:52:39.688Z,100.00
2023-03-13T22:55:41.069Z,100.00
2023-03-13T22:58:42.711Z,100.00
2023-03-13T23:01:44.195Z,100.00
2023-03-13T23:04:45.562Z,100.00
2023-03-13T23:07:47.037Z,100.00
2023-03-13T23:10:48.456Z,100.00
2023-03-13T23:13:49.884Z,100.00
2023-03-13T23:16:51.349Z,100.00
2023-03-13T23:19:52.710Z,100.00
2023-03-13T23:22:54.171Z,100.00
2023-03-13T23:25:55.556Z,100.00
2023-03-13T23:28:57.013Z,100.00
2023-03-13T23:31:58.412Z,100.00
2023-03-13T23:35:00.683Z,100.00
2023-03-13T23:38:02.063Z,100.00
2023-03-13T23:41:08.427Z,100.00
2023-03-13T23:44:09.889Z,100.00
2023-03-13T23:47:11.292Z,100.00
2023-03-13T23:50:14.832Z,100.00
2023-03-13T23:53:16.220Z,100.00
2023-03-13T23:56:17.878Z,100.00
2023-03-13T23:59:19.307Z,100.00
